sensor_id;sensor_type;location;lat;lon;timestamp;P1;durP1;ratioP1;P2;durP2;ratioP2
7154;SDS011;3619;53.784;10.440;2022-09-27T00:04:09;2.20;;;2.10;;
7154;SDS011;3619;53.784;10.440;2022-09-27T00:10:47;1.80;;;1.80;;
7154;SDS011;3619;53.784;10.440;2022-09-27T00:47:44;2.30;;;2.20;;
7154;SDS011;3619;53.784;10.440;2022-09-27T00:50:36;2.37;;;2.27;;
7154;SDS011;3619;53.784;10.440;2022-09-27T00:53:08;2.43;;;2.33;;
7154;SDS011;3619;53.784;10.440;2022-09-27T00:55:42;2.80;;;2.70;;
7154;SDS011;3619;53.784;10.440;2022-09-27T00:58:17;2.60;;;2.50;;
7154;SDS011;3619;53.784;10.440;2022-09-27T01:00:50;2.60;;;2.50;;
7154;SDS011;3619;53.784;10.440;2022-09-27T01:03:23;2.40;;;2.30;;
7154;SDS011;3619;53.784;10.440;2022-09-27T01:05:55;2.47;;;2.37;;
7154;SDS011;3619;53.784;10.440;2022-09-27T01:08:24;1.87;;;1.83;;
7154;SDS011;3619;53.784;10.440;2022-09-27T01:10:54;2.30;;;2.20;;
7154;SDS011;3619;53.784;10.440;2022-09-27T01:13:33;2.37;;;2.27;;
7154;SDS011;3619;53.784;10.440;2022-09-27T01:16:07;2.50;;;2.40;;
7154;SDS011;3619;53.784;10.440;2022-09-27T01:18:45;2.70;;;2.60;;
7154;SDS011;3619;53.784;10.440;2022-09-27T01:21:32;2.43;;;2.33;;
7154;SDS011;3619;53.784;10.440;2022-09-27T01:30:18;2.43;;;2.33;;
7154;SDS011;3619;53.784;10.440;2022-09-27T01:32:49;2.50;;;2.40;;
7154;SDS011;3619;53.784;10.440;2022-09-27T01:35:23;2.47;;;2.37;;
7154;SDS011;3619;53.784;10.440;2022-09-27T01:38:01;2.27;;;2.17;;
7154;SDS011;3619;53.784;10.440;2022-09-27T01:40:38;2.67;;;2.57;;
7154;SDS011;3619;53.784;10.440;2022-09-27T01:43:14;2.53;;;2.43;;
7154;SDS011;3619;53.784;10.440;2022-09-27T01:45:49;2.83;;;2.73;;
7154;SDS011;3619;53.784;10.440;2022-09-27T01:48:21;2.83;;;2.73;;
7154;SDS011;3619;53.784;10.440;2022-09-27T01:50:50;2.43;;;2.33;;
7154;SDS011;3619;53.784;10.440;2022-09-27T01:53:21;2.60;;;2.50;;
7154;SDS011;3619;53.784;10.440;2022-09-27T01:55:52;2.60;;;2.50;;
7154;SDS011;3619;53.784;10.440;2022-09-27T01:58:23;2.70;;;2.60;;
7154;SDS011;3619;53.784;10.440;2022-09-27T02:00:57;2.43;;;2.33;;
7154;SDS011;3619;53.784;10.440;2022-09-27T02:03:27;2.60;;;2.50;;
7154;SDS011;3619;53.784;10.440;2022-09-27T02:05:58;2.20;;;2.10;;
7154;SDS011;3619;53.784;10.440;2022-09-27T02:08:30;2.40;;;2.30;;
7154;SDS011;3619;53.784;10.440;2022-09-27T02:11:02;2.67;;;2.57;;
7154;SDS011;3619;53.784;10.440;2022-09-27T02:13:35;2.33;;;2.23;;
7154;SDS011;3619;53.784;10.440;2022-09-27T02:16:08;2.73;;;2.63;;
7154;SDS011;3619;53.784;10.440;2022-09-27T02:18:45;3.10;;;3.00;;
7154;SDS011;3619;53.784;10.440;2022-09-27T02:21:17;2.70;;;2.60;;
7154;SDS011;3619;53.784;10.440;2022-09-27T02:23:46;2.90;;;2.80;;
7154;SDS011;3619;53.784;10.440;2022-09-27T02:26:17;2.60;;;2.50;;
7154;SDS011;3619;53.784;10.440;2022-09-27T02:28:49;2.77;;;2.67;;
7154;SDS011;3619;53.784;10.440;2022-09-27T02:31:24;3.10;;;3.00;;
7154;SDS011;3619;53.784;10.440;2022-09-27T02:33:53;3.10;;;3.00;;
7154;SDS011;3619;53.784;10.440;2022-09-27T02:36:24;3.07;;;2.97;;
7154;SDS011;3619;53.784;10.440;2022-09-27T02:38:51;3.17;;;3.07;;
7154;SDS011;3619;53.784;10.440;2022-09-27T02:41:19;3.30;;;3.20;;
7154;SDS011;3619;53.784;10.440;2022-09-27T02:43:47;3.47;;;3.37;;
7154;SDS011;3619;53.784;10.440;2022-09-27T02:46:22;2.90;;;2.80;;
7154;SDS011;3619;53.784;10.440;2022-09-27T02:49:03;2.90;;;2.80;;
7154;SDS011;3619;53.784;10.440;2022-09-27T02:51:42;2.77;;;2.67;;
7154;SDS011;3619;53.784;10.440;2022-09-27T02:54:18;2.97;;;2.87;;
7154;SDS011;3619;53.784;10.440;2022-09-27T02:56:55;3.07;;;2.97;;
7154;SDS011;3619;53.784;10.440;2022-09-27T02:59:33;3.23;;;3.13;;
7154;SDS011;3619;53.784;10.440;2022-09-27T03:02:09;3.30;;;3.20;;
7154;SDS011;3619;53.784;10.440;2022-09-27T03:04:45;3.43;;;3.33;;
7154;SDS011;3619;53.784;10.440;2022-09-27T03:07:18;3.50;;;3.40;;
7154;SDS011;3619;53.784;10.440;2022-09-27T03:09:46;3.07;;;2.97;;
7154;SDS011;3619;53.784;10.440;2022-09-27T03:12:14;2.93;;;2.83;;
7154;SDS011;3619;53.784;10.440;2022-09-27T03:14:46;3.00;;;2.90;;
7154;SDS011;3619;53.784;10.440;2022-09-27T03:17:15;3.30;;;3.20;;
7154;SDS011;3619;53.784;10.440;2022-09-27T03:25:37;3.63;;;3.53;;
7154;SDS011;3619;53.784;10.440;2022-09-27T03:28:05;3.07;;;2.97;;
7154;SDS011;3619;53.784;10.440;2022-09-27T03:30:33;2.70;;;2.60;;
7154;SDS011;3619;53.784;10.440;2022-09-27T03:33:03;3.10;;;3.00;;
7154;SDS011;3619;53.784;10.440;2022-09-27T03:35:30;2.93;;;2.83;;
7154;SDS011;3619;53.784;10.440;2022-09-27T03:38:21;2.90;;;2.80;;
7154;SDS011;3619;53.784;10.440;2022-09-27T03:40:48;3.63;;;3.53;;
7154;SDS011;3619;53.784;10.440;2022-09-27T03:43:17;3.80;;;3.70;;
7154;SDS011;3619;53.784;10.440;2022-09-27T03:45:44;3.70;;;3.60;;
7154;SDS011;3619;53.784;10.440;2022-09-27T03:48:12;3.87;;;3.77;;
7154;SDS011;3619;53.784;10.440;2022-09-27T03:50:43;4.13;;;4.03;;
7154;SDS011;3619;53.784;10.440;2022-09-27T03:56:26;3.00;;;2.90;;
7154;SDS011;3619;53.784;10.440;2022-09-27T03:59:16;3.23;;;3.13;;
7154;SDS011;3619;53.784;10.440;2022-09-27T04:09:03;3.90;;;3.80;;
7154;SDS011;3619;53.784;10.440;2022-09-27T04:12:22;4.40;;;4.27;;
7154;SDS011;3619;53.784;10.440;2022-09-27T04:15:12;3.43;;;3.33;;
7154;SDS011;3619;53.784;10.440;2022-09-27T04:17:40;3.47;;;3.37;;
7154;SDS011;3619;53.784;10.440;2022-09-27T04:20:07;3.37;;;3.27;;
7154;SDS011;3619;53.784;10.440;2022-09-27T04:22:37;3.67;;;3.57;;
7154;SDS011;3619;53.784;10.440;2022-09-27T04:25:07;4.20;;;4.10;;
7154;SDS011;3619;53.784;10.440;2022-09-27T04:27:34;3.20;;;3.10;;
7154;SDS011;3619;53.784;10.440;2022-09-27T04:30:01;3.47;;;3.37;;
7154;SDS011;3619;53.784;10.440;2022-09-27T04:32:28;4.03;;;3.93;;
7154;SDS011;3619;53.784;10.440;2022-09-27T04:34:54;4.50;;;4.30;;
7154;SDS011;3619;53.784;10.440;2022-09-27T04:37:39;4.63;;;4.43;;
7154;SDS011;3619;53.784;10.440;2022-09-27T04:40:10;4.87;;;4.67;;
7154;SDS011;3619;53.784;10.440;2022-09-27T04:42:36;4.80;;;4.60;;
7154;SDS011;3619;53.784;10.440;2022-09-27T04:45:03;5.60;;;5.40;;
7154;SDS011;3619;53.784;10.440;2022-09-27T04:47:31;4.73;;;4.53;;
7154;SDS011;3619;53.784;10.440;2022-09-27T04:50:00;4.63;;;4.43;;
7154;SDS011;3619;53.784;10.440;2022-09-27T04:52:26;4.00;;;3.90;;
7154;SDS011;3619;53.784;10.440;2022-09-27T04:54:53;4.13;;;4.03;;
7154;SDS011;3619;53.784;10.440;2022-09-27T04:57:23;4.10;;;4.00;;
7154;SDS011;3619;53.784;10.440;2022-09-27T04:59:50;4.17;;;4.07;;
7154;SDS011;3619;53.784;10.440;2022-09-27T05:02:17;4.87;;;4.67;;
7154;SDS011;3619;53.784;10.440;2022-09-27T05:04:44;4.57;;;4.37;;
7154;SDS011;3619;53.784;10.440;2022-09-27T05:07:11;4.13;;;4.03;;
7154;SDS011;3619;53.784;10.440;2022-09-27T05:09:37;4.60;;;4.40;;
7154;SDS011;3619;53.784;10.440;2022-09-27T05:12:04;4.60;;;4.40;;
7154;SDS011;3619;53.784;10.440;2022-09-27T05:14:34;4.93;;;4.73;;
7154;SDS011;3619;53.784;10.440;2022-09-27T05:17:02;5.27;;;5.07;;
7154;SDS011;3619;53.784;10.440;2022-09-27T05:19:31;5.67;;;5.47;;
7154;SDS011;3619;53.784;10.440;2022-09-27T05:21:58;5.77;;;5.57;;
7154;SDS011;3619;53.784;10.440;2022-09-27T05:24:25;5.90;;;5.70;;
7154;SDS011;3619;53.784;10.440;2022-09-27T05:26:53;5.30;;;5.10;;
7154;SDS011;3619;53.784;10.440;2022-09-27T05:29:19;5.83;;;5.63;;
7154;SDS011;3619;53.784;10.440;2022-09-27T05:31:48;4.40;;;4.27;;
7154;SDS011;3619;53.784;10.440;2022-09-27T05:34:15;5.17;;;4.97;;
7154;SDS011;3619;53.784;10.440;2022-09-27T05:36:45;3.93;;;3.83;;
7154;SDS011;3619;53.784;10.440;2022-09-27T05:39:14;3.67;;;3.57;;
7154;SDS011;3619;53.784;10.440;2022-09-27T05:41:45;3.37;;;3.27;;
7154;SDS011;3619;53.784;10.440;2022-09-27T05:44:13;3.43;;;3.33;;
7154;SDS011;3619;53.784;10.440;2022-09-27T05:46:40;3.70;;;3.60;;
7154;SDS011;3619;53.784;10.440;2022-09-27T05:49:08;3.83;;;3.73;;
7154;SDS011;3619;53.784;10.440;2022-09-27T05:51:35;3.70;;;3.60;;
7154;SDS011;3619;53.784;10.440;2022-09-27T05:54:02;3.13;;;3.03;;
7154;SDS011;3619;53.784;10.440;2022-09-27T05:56:28;3.23;;;3.13;;
7154;SDS011;3619;53.784;10.440;2022-09-27T05:58:56;3.67;;;3.57;;
7154;SDS011;3619;53.784;10.440;2022-09-27T06:01:25;3.70;;;3.60;;
7154;SDS011;3619;53.784;10.440;2022-09-27T06:14:09;3.30;;;3.20;;
7154;SDS011;3619;53.784;10.440;2022-09-27T06:16:37;3.03;;;2.93;;
7154;SDS011;3619;53.784;10.440;2022-09-27T06:19:06;3.03;;;2.93;;
7154;SDS011;3619;53.784;10.440;2022-09-27T06:21:33;3.00;;;2.90;;
7154;SDS011;3619;53.784;10.440;2022-09-27T06:24:04;2.97;;;2.87;;
7154;SDS011;3619;53.784;10.440;2022-09-27T06:26:31;3.30;;;3.20;;
7154;SDS011;3619;53.784;10.440;2022-09-27T06:29:00;2.80;;;2.70;;
7154;SDS011;3619;53.784;10.440;2022-09-27T06:31:26;3.30;;;3.20;;
7154;SDS011;3619;53.784;10.440;2022-09-27T06:33:53;3.13;;;3.03;;
7154;SDS011;3619;53.784;10.440;2022-09-27T06:36:21;2.73;;;2.63;;
7154;SDS011;3619;53.784;10.440;2022-09-27T06:38:48;3.10;;;3.00;;
7154;SDS011;3619;53.784;10.440;2022-09-27T06:47:24;3.80;;;3.70;;
7154;SDS011;3619;53.784;10.440;2022-09-27T06:57:34;3.20;;;3.10;;
7154;SDS011;3619;53.784;10.440;2022-09-27T07:03:50;3.00;;;2.90;;
7154;SDS011;3619;53.784;10.440;2022-09-27T07:26:59;3.97;;;3.87;;
7154;SDS011;3619;53.784;10.440;2022-09-27T07:29:26;3.10;;;3.00;;
7154;SDS011;3619;53.784;10.440;2022-09-27T07:31:53;3.27;;;3.17;;
7154;SDS011;3619;53.784;10.440;2022-09-27T07:34:23;2.90;;;2.80;;
7154;SDS011;3619;53.784;10.440;2022-09-27T07:36:51;2.90;;;2.80;;
7154;SDS011;3619;53.784;10.440;2022-09-27T07:39:19;3.53;;;3.33;;
7154;SDS011;3619;53.784;10.440;2022-09-27T07:41:47;3.33;;;3.23;;
7154;SDS011;3619;53.784;10.440;2022-09-27T07:44:15;2.57;;;2.47;;
7154;SDS011;3619;53.784;10.440;2022-09-27T07:46:42;3.20;;;3.10;;
7154;SDS011;3619;53.784;10.440;2022-09-27T07:49:10;3.33;;;3.23;;
7154;SDS011;3619;53.784;10.440;2022-09-27T07:51:37;2.97;;;2.87;;
7154;SDS011;3619;53.784;10.440;2022-09-27T07:54:05;3.20;;;3.10;;
7154;SDS011;3619;53.784;10.440;2022-09-27T07:56:32;2.80;;;2.70;;
7154;SDS011;3619;53.784;10.440;2022-09-27T07:58:59;2.80;;;2.70;;
7154;SDS011;3619;53.784;10.440;2022-09-27T08:01:27;3.00;;;2.90;;
7154;SDS011;3619;53.784;10.440;2022-09-27T08:03:54;3.47;;;3.27;;
7154;SDS011;3619;53.784;10.440;2022-09-27T08:06:22;3.10;;;3.00;;
7154;SDS011;3619;53.784;10.440;2022-09-27T08:08:49;3.27;;;3.17;;
7154;SDS011;3619;53.784;10.440;2022-09-27T08:11:16;3.77;;;3.67;;
7154;SDS011;3619;53.784;10.440;2022-09-27T08:13:44;3.80;;;3.70;;
7154;SDS011;3619;53.784;10.440;2022-09-27T08:16:11;4.87;;;4.57;;
7154;SDS011;3619;53.784;10.440;2022-09-27T08:18:40;4.70;;;4.50;;
7154;SDS011;3619;53.784;10.440;2022-09-27T08:21:07;4.10;;;3.90;;
7154;SDS011;3619;53.784;10.440;2022-09-27T08:23:34;4.83;;;4.43;;
7154;SDS011;3619;53.784;10.440;2022-09-27T08:26:02;3.80;;;3.70;;
7154;SDS011;3619;53.784;10.440;2022-09-27T08:28:29;3.57;;;3.47;;
7154;SDS011;3619;53.784;10.440;2022-09-27T08:30:57;3.77;;;3.67;;
7154;SDS011;3619;53.784;10.440;2022-09-27T08:33:24;3.87;;;3.67;;
7154;SDS011;3619;53.784;10.440;2022-09-27T08:35:52;3.30;;;3.20;;
7154;SDS011;3619;53.784;10.440;2022-09-27T08:38:19;3.63;;;3.53;;
7154;SDS011;3619;53.784;10.440;2022-09-27T08:40:49;3.20;;;3.10;;
7154;SDS011;3619;53.784;10.440;2022-09-27T08:43:23;3.10;;;3.00;;
7154;SDS011;3619;53.784;10.440;2022-09-27T08:46:04;3.67;;;3.57;;
7154;SDS011;3619;53.784;10.440;2022-09-27T08:48:38;3.80;;;3.50;;
7154;SDS011;3619;53.784;10.440;2022-09-27T08:51:09;3.70;;;3.60;;
7154;SDS011;3619;53.784;10.440;2022-09-27T08:53:39;3.20;;;3.10;;
7154;SDS011;3619;53.784;10.440;2022-09-27T08:56:11;3.43;;;3.33;;
7154;SDS011;3619;53.784;10.440;2022-09-27T08:58:42;6.20;;;3.77;;
7154;SDS011;3619;53.784;10.440;2022-09-27T09:01:14;2.33;;;2.23;;
7154;SDS011;3619;53.784;10.440;2022-09-27T09:03:43;2.63;;;2.53;;
7154;SDS011;3619;53.784;10.440;2022-09-27T09:06:16;3.27;;;3.10;;
7154;SDS011;3619;53.784;10.440;2022-09-27T09:08:50;2.57;;;2.47;;
7154;SDS011;3619;53.784;10.440;2022-09-27T09:11:31;3.40;;;3.20;;
7154;SDS011;3619;53.784;10.440;2022-09-27T09:14:29;2.50;;;2.40;;
7154;SDS011;3619;53.784;10.440;2022-09-27T09:17:08;2.73;;;2.63;;
7154;SDS011;3619;53.784;10.440;2022-09-27T09:19:51;3.03;;;2.93;;
7154;SDS011;3619;53.784;10.440;2022-09-27T09:22:35;3.07;;;2.97;;
7154;SDS011;3619;53.784;10.440;2022-09-27T09:25:22;3.27;;;3.17;;
7154;SDS011;3619;53.784;10.440;2022-09-27T09:27:59;3.87;;;3.73;;
7154;SDS011;3619;53.784;10.440;2022-09-27T09:30:39;3.10;;;2.80;;
7154;SDS011;3619;53.784;10.440;2022-09-27T09:33:17;3.57;;;3.47;;
7154;SDS011;3619;53.784;10.440;2022-09-27T09:35:49;4.43;;;4.13;;
7154;SDS011;3619;53.784;10.440;2022-09-27T09:38:25;3.80;;;3.63;;
7154;SDS011;3619;53.784;10.440;2022-09-27T09:40:59;4.10;;;3.80;;
7154;SDS011;3619;53.784;10.440;2022-09-27T09:43:37;3.10;;;3.00;;
7154;SDS011;3619;53.784;10.440;2022-09-27T09:46:10;4.70;;;4.40;;
7154;SDS011;3619;53.784;10.440;2022-09-27T09:48:52;3.30;;;3.20;;
7154;SDS011;3619;53.784;10.440;2022-09-27T09:51:34;3.67;;;3.57;;
7154;SDS011;3619;53.784;10.440;2022-09-27T09:54:12;3.33;;;3.23;;
7154;SDS011;3619;53.784;10.440;2022-09-27T09:56:45;3.80;;;3.50;;
7154;SDS011;3619;53.784;10.440;2022-09-27T09:59:27;2.97;;;2.87;;
7154;SDS011;3619;53.784;10.440;2022-09-27T10:02:06;2.80;;;2.70;;
7154;SDS011;3619;53.784;10.440;2022-09-27T10:04:47;2.37;;;2.27;;
7154;SDS011;3619;53.784;10.440;2022-09-27T10:07:14;2.47;;;2.37;;
7154;SDS011;3619;53.784;10.440;2022-09-27T10:09:49;2.60;;;2.50;;
7154;SDS011;3619;53.784;10.440;2022-09-27T10:12:18;2.63;;;2.53;;
7154;SDS011;3619;53.784;10.440;2022-09-27T10:14:45;4.03;;;3.87;;
7154;SDS011;3619;53.784;10.440;2022-09-27T10:17:14;3.73;;;3.57;;
7154;SDS011;3619;53.784;10.440;2022-09-27T10:19:44;3.27;;;3.17;;
7154;SDS011;3619;53.784;10.440;2022-09-27T10:22:15;4.17;;;3.97;;
7154;SDS011;3619;53.784;10.440;2022-09-27T10:24:57;3.67;;;3.57;;
7154;SDS011;3619;53.784;10.440;2022-09-27T10:27:26;3.40;;;3.30;;
7154;SDS011;3619;53.784;10.440;2022-09-27T10:30:03;3.50;;;3.40;;
7154;SDS011;3619;53.784;10.440;2022-09-27T10:32:31;3.03;;;2.93;;
7154;SDS011;3619;53.784;10.440;2022-09-27T10:35:19;3.00;;;2.90;;
7154;SDS011;3619;53.784;10.440;2022-09-27T10:37:48;2.70;;;2.60;;
7154;SDS011;3619;53.784;10.440;2022-09-27T10:40:23;2.60;;;2.50;;
7154;SDS011;3619;53.784;10.440;2022-09-27T10:42:52;3.13;;;3.03;;
7154;SDS011;3619;53.784;10.440;2022-09-27T10:45:26;2.90;;;2.80;;
7154;SDS011;3619;53.784;10.440;2022-09-27T10:47:54;2.83;;;2.73;;
7154;SDS011;3619;53.784;10.440;2022-09-27T10:50:22;2.43;;;2.33;;
7154;SDS011;3619;53.784;10.440;2022-09-27T10:52:59;3.07;;;2.97;;
7154;SDS011;3619;53.784;10.440;2022-09-27T10:55:30;2.37;;;2.27;;
7154;SDS011;3619;53.784;10.440;2022-09-27T10:57:58;2.60;;;2.40;;
7154;SDS011;3619;53.784;10.440;2022-09-27T11:00:28;2.73;;;2.63;;
7154;SDS011;3619;53.784;10.440;2022-09-27T11:02:56;2.30;;;2.20;;
7154;SDS011;3619;53.784;10.440;2022-09-27T11:05:30;2.33;;;2.23;;
7154;SDS011;3619;53.784;10.440;2022-09-27T11:08:00;2.47;;;2.37;;
7154;SDS011;3619;53.784;10.440;2022-09-27T11:11:00;3.33;;;3.23;;
7154;SDS011;3619;53.784;10.440;2022-09-27T11:13:30;2.73;;;2.63;;
7154;SDS011;3619;53.784;10.440;2022-09-27T11:16:04;3.17;;;3.07;;
7154;SDS011;3619;53.784;10.440;2022-09-27T11:18:49;2.97;;;2.87;;
7154;SDS011;3619;53.784;10.440;2022-09-27T11:21:30;3.00;;;2.90;;
7154;SDS011;3619;53.784;10.440;2022-09-27T11:24:20;2.93;;;2.83;;
7154;SDS011;3619;53.784;10.440;2022-09-27T11:27:01;3.17;;;3.07;;
7154;SDS011;3619;53.784;10.440;2022-09-27T11:29:35;2.93;;;2.83;;
7154;SDS011;3619;53.784;10.440;2022-09-27T11:32:13;3.23;;;3.13;;
7154;SDS011;3619;53.784;10.440;2022-09-27T11:37:45;3.40;;;3.30;;
7154;SDS011;3619;53.784;10.440;2022-09-27T11:40:26;3.07;;;2.97;;
7154;SDS011;3619;53.784;10.440;2022-09-27T11:43:08;2.90;;;2.80;;
7154;SDS011;3619;53.784;10.440;2022-09-27T11:45:55;3.33;;;3.23;;
7154;SDS011;3619;53.784;10.440;2022-09-27T11:48:40;15.60;;;5.20;;
7154;SDS011;3619;53.784;10.440;2022-09-27T11:51:23;3.30;;;3.10;;
7154;SDS011;3619;53.784;10.440;2022-09-27T11:54:04;3.27;;;3.17;;
7154;SDS011;3619;53.784;10.440;2022-09-27T11:56:42;3.43;;;3.33;;
7154;SDS011;3619;53.784;10.440;2022-09-27T11:59:26;3.43;;;3.33;;
7154;SDS011;3619;53.784;10.440;2022-09-27T12:02:08;3.60;;;3.50;;
7154;SDS011;3619;53.784;10.440;2022-09-27T12:04:55;2.80;;;2.70;;
7154;SDS011;3619;53.784;10.440;2022-09-27T12:07:32;3.17;;;3.07;;
7154;SDS011;3619;53.784;10.440;2022-09-27T12:10:07;3.53;;;3.43;;
7154;SDS011;3619;53.784;10.440;2022-09-27T12:12:37;3.10;;;2.90;;
7154;SDS011;3619;53.784;10.440;2022-09-27T12:15:13;2.50;;;2.40;;
7154;SDS011;3619;53.784;10.440;2022-09-27T12:17:44;2.80;;;2.70;;
7154;SDS011;3619;53.784;10.440;2022-09-27T12:20:15;3.00;;;2.90;;
7154;SDS011;3619;53.784;10.440;2022-09-27T12:22:47;2.67;;;2.57;;
7154;SDS011;3619;53.784;10.440;2022-09-27T12:25:19;2.97;;;2.87;;
7154;SDS011;3619;53.784;10.440;2022-09-27T12:27:48;2.60;;;2.50;;
7154;SDS011;3619;53.784;10.440;2022-09-27T12:30:20;2.90;;;2.80;;
7154;SDS011;3619;53.784;10.440;2022-09-27T12:32:50;2.93;;;2.83;;
7154;SDS011;3619;53.784;10.440;2022-09-27T12:35:22;3.30;;;3.20;;
7154;SDS011;3619;53.784;10.440;2022-09-27T12:37:54;3.57;;;3.47;;
7154;SDS011;3619;53.784;10.440;2022-09-27T12:40:26;2.97;;;2.87;;
7154;SDS011;3619;53.784;10.440;2022-09-27T12:42:58;3.50;;;3.40;;
7154;SDS011;3619;53.784;10.440;2022-09-27T12:45:33;3.40;;;3.30;;
7154;SDS011;3619;53.784;10.440;2022-09-27T12:48:10;2.93;;;2.83;;
7154;SDS011;3619;53.784;10.440;2022-09-27T12:50:51;3.43;;;3.33;;
7154;SDS011;3619;53.784;10.440;2022-09-27T12:53:20;3.40;;;3.30;;
7154;SDS011;3619;53.784;10.440;2022-09-27T12:55:54;3.90;;;3.80;;
7154;SDS011;3619;53.784;10.440;2022-09-27T12:58:38;3.87;;;3.67;;
7154;SDS011;3619;53.784;10.440;2022-09-27T13:01:16;3.40;;;3.30;;
7154;SDS011;3619;53.784;10.440;2022-09-27T13:04:03;3.23;;;3.13;;
7154;SDS011;3619;53.784;10.440;2022-09-27T13:06:44;3.10;;;3.00;;
7154;SDS011;3619;53.784;10.440;2022-09-27T13:09:27;2.73;;;2.63;;
7154;SDS011;3619;53.784;10.440;2022-09-27T13:12:26;3.00;;;2.90;;
7154;SDS011;3619;53.784;10.440;2022-09-27T13:14:57;2.97;;;2.87;;
7154;SDS011;3619;53.784;10.440;2022-09-27T13:17:33;3.13;;;3.03;;
7154;SDS011;3619;53.784;10.440;2022-09-27T13:29:22;3.33;;;3.23;;
7154;SDS011;3619;53.784;10.440;2022-09-27T13:32:00;3.20;;;3.10;;
7154;SDS011;3619;53.784;10.440;2022-09-27T13:34:48;3.00;;;2.90;;
7154;SDS011;3619;53.784;10.440;2022-09-27T13:40:21;2.70;;;2.60;;
7154;SDS011;3619;53.784;10.440;2022-09-27T13:43:03;3.90;;;3.73;;
7154;SDS011;3619;53.784;10.440;2022-09-27T13:45:52;3.33;;;3.23;;
7154;SDS011;3619;53.784;10.440;2022-09-27T13:48:26;4.13;;;3.93;;
7154;SDS011;3619;53.784;10.440;2022-09-27T13:51:02;3.50;;;3.40;;
7154;SDS011;3619;53.784;10.440;2022-09-27T13:53:33;3.10;;;3.00;;
7154;SDS011;3619;53.784;10.440;2022-09-27T13:56:03;3.10;;;3.00;;
7154;SDS011;3619;53.784;10.440;2022-09-27T13:58:39;3.63;;;3.53;;
7154;SDS011;3619;53.784;10.440;2022-09-27T14:01:17;3.27;;;3.17;;
7154;SDS011;3619;53.784;10.440;2022-09-27T14:03:50;2.97;;;2.87;;
7154;SDS011;3619;53.784;10.440;2022-09-27T14:06:21;3.63;;;3.53;;
7154;SDS011;3619;53.784;10.440;2022-09-27T14:08:52;3.47;;;3.37;;
7154;SDS011;3619;53.784;10.440;2022-09-27T14:11:24;3.53;;;3.43;;
7154;SDS011;3619;53.784;10.440;2022-09-27T14:13:54;3.33;;;3.23;;
7154;SDS011;3619;53.784;10.440;2022-09-27T14:16:22;3.10;;;3.00;;
7154;SDS011;3619;53.784;10.440;2022-09-27T14:18:50;3.87;;;3.77;;
7154;SDS011;3619;53.784;10.440;2022-09-27T14:21:30;3.67;;;3.57;;
7154;SDS011;3619;53.784;10.440;2022-09-27T14:24:19;3.97;;;3.87;;
7154;SDS011;3619;53.784;10.440;2022-09-27T14:26:47;3.93;;;3.73;;
7154;SDS011;3619;53.784;10.440;2022-09-27T14:29:15;3.37;;;3.27;;
7154;SDS011;3619;53.784;10.440;2022-09-27T14:31:42;3.83;;;3.73;;
7154;SDS011;3619;53.784;10.440;2022-09-27T14:34:12;4.57;;;4.37;;
7154;SDS011;3619;53.784;10.440;2022-09-27T14:36:40;4.40;;;4.27;;
7154;SDS011;3619;53.784;10.440;2022-09-27T14:39:27;4.60;;;4.30;;
7154;SDS011;3619;53.784;10.440;2022-09-27T14:41:56;4.63;;;4.43;;
7154;SDS011;3619;53.784;10.440;2022-09-27T14:44:25;3.83;;;3.73;;
7154;SDS011;3619;53.784;10.440;2022-09-27T14:47:07;5.00;;;4.80;;
7154;SDS011;3619;53.784;10.440;2022-09-27T14:49:34;4.23;;;4.13;;
7154;SDS011;3619;53.784;10.440;2022-09-27T14:52:13;3.93;;;3.83;;
7154;SDS011;3619;53.784;10.440;2022-09-27T14:54:42;4.93;;;4.73;;
7154;SDS011;3619;53.784;10.440;2022-09-27T14:57:13;4.80;;;4.60;;
7154;SDS011;3619;53.784;10.440;2022-09-27T14:59:43;4.37;;;4.17;;
7154;SDS011;3619;53.784;10.440;2022-09-27T15:02:14;4.63;;;4.43;;
7154;SDS011;3619;53.784;10.440;2022-09-27T15:04:45;4.77;;;4.57;;
7154;SDS011;3619;53.784;10.440;2022-09-27T15:07:16;4.63;;;4.43;;
7154;SDS011;3619;53.784;10.440;2022-09-27T15:09:43;5.30;;;5.10;;
7154;SDS011;3619;53.784;10.440;2022-09-27T15:12:11;6.00;;;5.80;;
7154;SDS011;3619;53.784;10.440;2022-09-27T15:14:41;5.87;;;5.67;;
7154;SDS011;3619;53.784;10.440;2022-09-27T15:17:13;4.90;;;4.70;;
7154;SDS011;3619;53.784;10.440;2022-09-27T15:19:54;5.23;;;5.03;;
7154;SDS011;3619;53.784;10.440;2022-09-27T15:22:36;5.67;;;5.47;;
7154;SDS011;3619;53.784;10.440;2022-09-27T15:25:29;5.90;;;5.70;;
7154;SDS011;3619;53.784;10.440;2022-09-27T15:28:02;8.20;;;5.77;;
7154;SDS011;3619;53.784;10.440;2022-09-27T15:30:35;4.93;;;4.73;;
7154;SDS011;3619;53.784;10.440;2022-09-27T15:33:03;5.10;;;4.90;;
7154;SDS011;3619;53.784;10.440;2022-09-27T15:35:32;4.63;;;4.43;;
7154;SDS011;3619;53.784;10.440;2022-09-27T15:41:02;4.70;;;4.50;;
7154;SDS011;3619;53.784;10.440;2022-09-27T15:43:38;4.80;;;4.60;;
7154;SDS011;3619;53.784;10.440;2022-09-27T15:51:57;5.13;;;4.93;;
7154;SDS011;3619;53.784;10.440;2022-09-27T15:54:29;4.23;;;4.13;;
7154;SDS011;3619;53.784;10.440;2022-09-27T15:57:00;4.17;;;4.07;;
7154;SDS011;3619;53.784;10.440;2022-09-27T15:59:29;4.13;;;4.03;;
7154;SDS011;3619;53.784;10.440;2022-09-27T16:01:59;3.93;;;3.83;;
7154;SDS011;3619;53.784;10.440;2022-09-27T16:04:27;5.07;;;4.87;;
7154;SDS011;3619;53.784;10.440;2022-09-27T16:06:56;4.33;;;4.23;;
7154;SDS011;3619;53.784;10.440;2022-09-27T16:09:27;4.23;;;4.13;;
7154;SDS011;3619;53.784;10.440;2022-09-27T16:11:55;5.47;;;5.27;;
7154;SDS011;3619;53.784;10.440;2022-09-27T16:14:29;5.80;;;5.57;;
7154;SDS011;3619;53.784;10.440;2022-09-27T16:16:59;5.80;;;5.60;;
7154;SDS011;3619;53.784;10.440;2022-09-27T16:19:26;5.73;;;5.50;;
7154;SDS011;3619;53.784;10.440;2022-09-27T16:21:52;6.00;;;5.80;;
7154;SDS011;3619;53.784;10.440;2022-09-27T16:24:19;5.87;;;5.67;;
7154;SDS011;3619;53.784;10.440;2022-09-27T16:26:49;5.50;;;5.30;;
7154;SDS011;3619;53.784;10.440;2022-09-27T16:29:18;6.07;;;5.87;;
7154;SDS011;3619;53.784;10.440;2022-09-27T16:31:46;6.40;;;6.20;;
7154;SDS011;3619;53.784;10.440;2022-09-27T16:34:22;6.73;;;6.53;;
7154;SDS011;3619;53.784;10.440;2022-09-27T16:36:58;7.03;;;6.77;;
7154;SDS011;3619;53.784;10.440;2022-09-27T16:39:26;7.37;;;7.07;;
7154;SDS011;3619;53.784;10.440;2022-09-27T16:41:54;6.77;;;6.57;;
7154;SDS011;3619;53.784;10.440;2022-09-27T16:44:22;7.43;;;7.13;;
7154;SDS011;3619;53.784;10.440;2022-09-27T16:46:49;7.60;;;7.30;;
7154;SDS011;3619;53.784;10.440;2022-09-27T16:49:18;7.13;;;6.83;;
7154;SDS011;3619;53.784;10.440;2022-09-27T16:52:02;7.47;;;7.17;;
7154;SDS011;3619;53.784;10.440;2022-09-27T16:54:34;8.67;;;8.37;;
7154;SDS011;3619;53.784;10.440;2022-09-27T16:57:04;9.00;;;8.70;;
7154;SDS011;3619;53.784;10.440;2022-09-27T16:59:31;7.87;;;7.57;;
7154;SDS011;3619;53.784;10.440;2022-09-27T17:02:13;7.23;;;6.93;;
7154;SDS011;3619;53.784;10.440;2022-09-27T17:04:42;6.93;;;6.70;;
7154;SDS011;3619;53.784;10.440;2022-09-27T17:07:10;6.73;;;6.53;;
7154;SDS011;3619;53.784;10.440;2022-09-27T17:09:43;6.53;;;6.33;;
7154;SDS011;3619;53.784;10.440;2022-09-27T17:12:15;5.93;;;5.73;;
7154;SDS011;3619;53.784;10.440;2022-09-27T17:14:43;6.43;;;6.23;;
7154;SDS011;3619;53.784;10.440;2022-09-27T17:17:11;5.23;;;5.03;;
7154;SDS011;3619;53.784;10.440;2022-09-27T17:19:38;5.20;;;4.90;;
7154;SDS011;3619;53.784;10.440;2022-09-27T17:22:05;3.97;;;3.87;;
7154;SDS011;3619;53.784;10.440;2022-09-27T17:24:36;4.90;;;4.67;;
7154;SDS011;3619;53.784;10.440;2022-09-27T17:27:04;3.80;;;3.70;;
7154;SDS011;3619;53.784;10.440;2022-09-27T17:29:39;4.23;;;4.13;;
7154;SDS011;3619;53.784;10.440;2022-09-27T17:32:06;4.43;;;4.23;;
7154;SDS011;3619;53.784;10.440;2022-09-27T17:34:33;5.00;;;4.80;;
7154;SDS011;3619;53.784;10.440;2022-09-27T17:37:00;5.30;;;5.10;;
7154;SDS011;3619;53.784;10.440;2022-09-27T17:39:28;5.37;;;5.07;;
7154;SDS011;3619;53.784;10.440;2022-09-27T17:42:21;5.27;;;5.07;;
7154;SDS011;3619;53.784;10.440;2022-09-27T17:47:44;5.30;;;5.10;;
7154;SDS011;3619;53.784;10.440;2022-09-27T17:50:30;5.70;;;5.50;;
7154;SDS011;3619;53.784;10.440;2022-09-27T17:53:01;5.90;;;5.70;;